createdAt,value
2022-10-12T00:00:53.946Z,4.28
2022-10-12T00:03:34.389Z,4.27
2022-10-12T00:06:13.080Z,4.20
2022-10-12T00:08:42.218Z,4.22
2022-10-12T00:11:14.051Z,4.22
2022-10-12T00:13:41.771Z,4.24
2022-10-12T00:16:12.317Z,4.24
2022-10-12T00:18:40.453Z,4.29
2022-10-12T00:21:16.276Z,4.32
2022-10-12T00:23:44.565Z,4.35
2022-10-12T00:26:13.790Z,4.33
2022-10-12T00:28:41.618Z,4.33
2022-10-12T00:31:15.185Z,4.29
2022-10-12T00:33:44.001Z,4.26
2022-10-12T00:36:23.433Z,4.22
2022-10-12T00:38:53.089Z,4.13
2022-10-12T00:41:23.671Z,4.12
2022-10-12T00:43:57.858Z,4.09
2022-10-12T00:46:30.092Z,4.04
2022-10-12T00:49:09.461Z,3.99
2022-10-12T00:51:39.310Z,3.91
2022-10-12T00:54:12.285Z,3.94
2022-10-12T00:56:44.245Z,3.96
2022-10-12T00:59:19.246Z,3.97
2022-10-12T01:01:46.928Z,3.99
2022-10-12T01:04:14.780Z,4.02
2022-10-12T01:06:42.470Z,4.04
2022-10-12T01:09:10.083Z,4.07
2022-10-12T01:11:37.850Z,4.07
2022-10-12T01:14:05.691Z,4.05
2022-10-12T01:16:36.294Z,4.04
2022-10-12T01:19:13.043Z,4.01
2022-10-12T01:21:50.422Z,3.95
2022-10-12T01:24:30.103Z,3.86
2022-10-12T01:27:12.231Z,3.80
2022-10-12T01:30:09.242Z,3.80
2022-10-12T01:33:04.631Z,3.75
2022-10-12T01:35:45.897Z,3.71
2022-10-12T01:38:35.233Z,3.70
2022-10-12T01:41:18.874Z,3.67
2022-10-12T01:43:47.211Z,3.69
2022-10-12T01:46:20.977Z,3.73
2022-10-12T01:48:51.986Z,3.73
2022-10-12T01:51:31.496Z,3.73
2022-10-12T01:54:24.731Z,3.71
2022-10-12T01:57:08.003Z,3.69
2022-10-12T01:59:41.546Z,3.62
2022-10-12T02:02:42.045Z,3.65
2022-10-12T02:05:14.856Z,3.59
2022-10-12T02:07:48.403Z,3.54
2022-10-12T02:10:28.361Z,3.47
2022-10-12T02:12:59.177Z,3.41
2022-10-12T02:15:28.082Z,3.36
2022-10-12T02:17:57.985Z,3.33
2022-10-12T02:20:27.666Z,3.31
2022-10-12T02:22:55.627Z,3.30
2022-10-12T02:25:26.943Z,3.31
2022-10-12T02:28:00.602Z,3.32
2022-10-12T02:30:28.292Z,3.33
2022-10-12T02:33:06.365Z,3.33
2022-10-12T02:36:03.604Z,3.33
2022-10-12T02:38:58.088Z,3.38
2022-10-12T02:41:33.328Z,3.42
2022-10-12T02:44:05.121Z,3.42
2022-10-12T02:46:35.376Z,3.41
2022-10-12T02:49:04.516Z,3.38
2022-10-12T02:51:33.092Z,3.35
2022-10-12T02:54:01.917Z,3.30
2022-10-12T02:56:29.694Z,3.27
2022-10-12T02:58:57.623Z,3.24
2022-10-12T03:01:25.367Z,3.20
2022-10-12T03:03:53.039Z,3.11
2022-10-12T03:06:20.716Z,3.11
2022-10-12T03:08:48.422Z,3.12
2022-10-12T03:11:16.048Z,3.11
2022-10-12T03:13:43.691Z,3.16
2022-10-12T03:16:12.098Z,3.17
2022-10-12T03:18:40.289Z,3.18
2022-10-12T03:21:08.035Z,3.17
2022-10-12T03:23:35.626Z,3.18
2022-10-12T03:26:04.196Z,3.16
2022-10-12T03:28:32.831Z,3.13
2022-10-12T03:31:01.058Z,3.16
2022-10-12T03:33:29.410Z,3.13
2022-10-12T03:35:57.266Z,3.09
2022-10-12T03:38:24.936Z,3.00
2022-10-12T03:40:52.604Z,3.02
2022-10-12T03:43:20.386Z,2.98
2022-10-12T03:45:48.046Z,2.92
2022-10-12T03:48:15.794Z,2.85
2022-10-12T03:50:48.489Z,2.84
2022-10-12T03:53:16.611Z,2.82
2022-10-12T03:55:44.455Z,2.80
2022-10-12T03:58:13.248Z,2.85
2022-10-12T04:00:41.873Z,2.85
2022-10-12T04:03:09.539Z,2.84
2022-10-12T04:05:37.211Z,2.85
2022-10-12T04:08:05.060Z,2.83
2022-10-12T04:10:32.693Z,2.82
2022-10-12T04:13:00.306Z,2.81
2022-10-12T04:15:27.944Z,2.80
2022-10-12T04:17:55.609Z,2.78
2022-10-12T04:20:23.269Z,2.74
2022-10-12T04:22:50.890Z,2.69
2022-10-12T04:25:18.569Z,2.61
2022-10-12T04:27:46.208Z,2.60
2022-10-12T04:30:14.163Z,2.53
2022-10-12T04:32:42.046Z,2.49
2022-10-12T04:35:09.730Z,2.47
2022-10-12T04:37:37.761Z,2.46
2022-10-12T04:40:06.341Z,2.47
2022-10-12T04:42:34.000Z,2.49
2022-10-12T04:45:01.792Z,2.52
2022-10-12T04:47:29.535Z,2.53
2022-10-12T04:49:57.111Z,2.59
2022-10-12T04:52:24.773Z,2.59
2022-10-12T04:54:52.432Z,2.57
2022-10-12T04:57:20.294Z,2.62
2022-10-12T04:59:47.921Z,2.62
2022-10-12T05:02:15.957Z,2.64
2022-10-12T05:04:43.758Z,2.66
2022-10-12T05:07:11.466Z,2.68
2022-10-12T05:09:39.368Z,2.65
2022-10-12T05:12:07.236Z,2.71
2022-10-12T05:14:36.204Z,2.71
2022-10-12T05:20:26.713Z,2.79
2022-10-12T05:22:54.362Z,2.82
2022-10-12T05:25:22.174Z,2.96
2022-10-12T05:27:49.857Z,3.04
2022-10-12T05:30:17.680Z,3.14
2022-10-12T05:32:45.316Z,3.30
2022-10-12T05:35:13.020Z,3.40
2022-10-12T05:37:41.110Z,3.56
2022-10-12T05:40:09.278Z,3.68
2022-10-12T05:42:37.218Z,3.83
2022-10-12T05:45:06.059Z,3.96
2022-10-12T05:47:33.868Z,4.07
2022-10-12T05:50:01.840Z,4.23
2022-10-12T05:52:29.681Z,4.38
2022-10-12T05:54:57.311Z,4.52
2022-10-12T05:57:24.989Z,4.66
2022-10-12T05:59:52.623Z,4.82
2022-10-12T06:02:21.623Z,4.97
2022-10-12T06:04:49.381Z,5.15
2022-10-12T06:07:17.120Z,5.38
2022-10-12T06:09:44.823Z,5.62
2022-10-12T06:12:12.777Z,5.87
2022-10-12T06:14:40.415Z,6.13
2022-10-12T06:17:09.584Z,6.38
2022-10-12T06:19:37.341Z,6.60
2022-10-12T06:22:05.127Z,6.83
2022-10-12T06:24:32.847Z,7.04
2022-10-12T06:27:01.168Z,7.24
2022-10-12T06:29:28.780Z,7.43
2022-10-12T06:31:56.525Z,7.61
2022-10-12T06:34:24.228Z,7.76
2022-10-12T06:36:52.314Z,7.94
2022-10-12T06:39:20.037Z,8.08
2022-10-12T06:41:47.777Z,8.29
2022-10-12T06:44:15.603Z,8.44
2022-10-12T06:46:43.295Z,8.55
2022-10-12T06:49:11.057Z,8.80
2022-10-12T06:51:39.103Z,9.01
2022-10-12T06:54:06.710Z,9.22
2022-10-12T06:56:35.055Z,9.50
2022-10-12T06:59:02.707Z,9.72
2022-10-12T07:01:30.471Z,10.15
2022-10-12T07:04:00.653Z,10.95
2022-10-12T07:06:28.828Z,11.99
2022-10-12T07:08:56.502Z,13.13
2022-10-12T07:11:24.271Z,14.23
2022-10-12T07:13:51.865Z,15.25
2022-10-12T07:16:19.642Z,16.09
2022-10-12T07:18:47.311Z,16.91
2022-10-12T07:21:15.035Z,17.75
2022-10-12T07:23:46.043Z,18.57
2022-10-12T07:26:14.326Z,19.36
2022-10-12T07:28:42.059Z,20.18
2022-10-12T07:31:10.068Z,20.89
2022-10-12T07:33:41.188Z,21.58
2022-10-12T07:36:21.286Z,22.32
2022-10-12T07:38:50.161Z,23.08
2022-10-12T07:41:18.520Z,23.61
2022-10-12T07:43:46.256Z,24.35
2022-10-12T07:46:14.047Z,24.93
2022-10-12T07:48:47.273Z,25.58
2022-10-12T07:51:18.446Z,26.32
2022-10-12T07:53:46.203Z,27.00
2022-10-12T07:56:17.209Z,27.56
2022-10-12T07:58:50.371Z,28.23
2022-10-12T08:01:19.773Z,28.93
2022-10-12T08:03:48.275Z,29.66
2022-10-12T08:06:18.901Z,30.28
2022-10-12T08:08:46.983Z,30.62
2022-10-12T08:11:14.691Z,31.35
2022-10-12T08:13:43.506Z,32.16
2022-10-12T08:16:14.694Z,32.93
2022-10-12T08:18:42.646Z,33.72
2022-10-12T08:21:12.931Z,34.44
2022-10-12T08:23:41.097Z,35.04
2022-10-12T08:26:09.893Z,35.78
2022-10-12T08:28:37.744Z,36.28
2022-10-12T08:31:07.283Z,36.57
2022-10-12T08:33:35.272Z,37.27
2022-10-12T08:36:05.234Z,37.80
2022-10-12T08:38:33.752Z,38.13
2022-10-12T08:41:06.990Z,38.25
2022-10-12T08:43:52.301Z,38.63
2022-10-12T08:46:22.469Z,38.96
2022-10-12T08:48:59.988Z,38.75
2022-10-12T08:51:31.744Z,38.55
2022-10-12T08:54:07.539Z,38.98
2022-10-12T08:56:35.864Z,39.47
2022-10-12T08:59:03.745Z,39.83
2022-10-12T09:01:51.697Z,40.16
2022-10-12T09:04:22.594Z,40.29
2022-10-12T09:07:15.193Z,40.37
2022-10-12T09:09:51.913Z,40.81
2022-10-12T09:12:51.959Z,40.40
2022-10-12T09:15:24.080Z,40.32
2022-10-12T09:17:56.769Z,40.45
2022-10-12T09:20:47.066Z,40.30
2022-10-12T09:23:24.426Z,40.73
2022-10-12T09:25:59.106Z,40.94
2022-10-12T09:28:37.644Z,41.52
2022-10-12T09:31:20.668Z,41.82
2022-10-12T09:33:54.221Z,42.25
2022-10-12T09:36:25.236Z,42.15
2022-10-12T09:38:53.656Z,42.04
2022-10-12T09:41:29.724Z,41.89
2022-10-12T09:44:00.535Z,41.92
2022-10-12T09:46:58.072Z,42.15
2022-10-12T09:49:47.266Z,42.34
2022-10-12T09:52:18.020Z,42.60
2022-10-12T09:54:49.870Z,42.89
2022-10-12T09:57:28.174Z,43.02
2022-10-12T09:59:56.147Z,43.35
2022-10-12T10:02:25.199Z,43.66
2022-10-12T10:04:54.177Z,43.73
2022-10-12T10:07:35.202Z,43.72
2022-10-12T10:10:16.144Z,44.05
2022-10-12T10:12:48.737Z,44.05
2022-10-12T10:15:23.596Z,44.10
2022-10-12T10:17:54.664Z,44.49
2022-10-12T10:20:36.894Z,44.19
2022-10-12T10:23:05.376Z,43.87
2022-10-12T10:25:34.124Z,44.18
2022-10-12T10:28:22.392Z,44.04
2022-10-12T10:30:59.955Z,43.11
2022-10-12T10:33:27.743Z,41.45
2022-10-12T10:36:05.030Z,40.55
2022-10-12T10:38:49.520Z,39.37
2022-10-12T10:41:20.665Z,38.12
2022-10-12T10:43:49.741Z,37.47
2022-10-12T10:46:27.989Z,36.13
2022-10-12T10:49:06.238Z,35.04
2022-10-12T10:51:53.947Z,33.99
2022-10-12T10:54:24.308Z,34.19
2022-10-12T10:56:56.897Z,33.84
2022-10-12T10:59:36.012Z,33.91
2022-10-12T11:02:11.300Z,34.80
2022-10-12T11:04:46.423Z,35.34
2022-10-12T11:07:56.387Z,36.27
2022-10-12T11:10:31.240Z,36.57
2022-10-12T11:13:24.428Z,36.10
2022-10-12T11:16:03.079Z,35.39
2022-10-12T11:18:41.551Z,35.09
2022-10-12T11:21:17.976Z,33.93
2022-10-12T11:23:51.367Z,32.80
2022-10-12T11:26:43.777Z,32.41
2022-10-12T11:29:14.956Z,32.00
2022-10-12T11:31:50.224Z,32.04
2022-10-12T11:34:21.875Z,32.08
2022-10-12T11:37:18.298Z,30.98
2022-10-12T11:39:47.901Z,31.40
2022-10-12T11:42:27.582Z,32.21
2022-10-12T11:44:55.497Z,31.30
2022-10-12T11:47:38.068Z,31.69
2022-10-12T11:50:27.150Z,32.47
2022-10-12T11:52:57.194Z,33.05
2022-10-12T11:55:30.750Z,32.43
2022-10-12T11:58:07.632Z,31.39
2022-10-12T12:01:04.402Z,29.93
2022-10-12T12:03:44.411Z,28.82
2022-10-12T12:06:32.441Z,27.61
2022-10-12T12:09:02.857Z,26.75
2022-10-12T12:11:33.869Z,25.81
2022-10-12T12:14:26.428Z,25.18
2022-10-12T12:17:14.023Z,24.23
2022-10-12T12:19:43.789Z,23.23
2022-10-12T12:22:31.836Z,22.50
2022-10-12T12:25:15.531Z,21.83
2022-10-12T12:27:45.053Z,21.43
2022-10-12T12:30:18.556Z,21.47
2022-10-12T12:32:56.654Z,21.32
2022-10-12T12:35:33.013Z,21.06
2022-10-12T12:38:05.083Z,20.96
2022-10-12T12:40:33.824Z,20.67
2022-10-12T12:43:29.821Z,20.34
2022-10-12T12:45:57.906Z,19.96
2022-10-12T12:48:43.817Z,19.56
2022-10-12T12:51:20.697Z,19.05
2022-10-12T12:53:55.729Z,18.83
2022-10-12T12:56:56.372Z,18.69
2022-10-12T12:59:50.526Z,18.41
2022-10-12T13:02:49.297Z,18.11
2022-10-12T13:05:38.665Z,17.85
2022-10-12T13:08:18.703Z,17.61
2022-10-12T13:11:14.526Z,17.33
2022-10-12T13:14:07.002Z,17.08
2022-10-12T13:19:42.163Z,16.66
2022-10-12T13:22:33.525Z,16.54
2022-10-12T13:25:07.166Z,16.34
2022-10-12T13:27:45.866Z,16.31
2022-10-12T13:30:36.341Z,16.45
2022-10-12T13:33:21.648Z,16.63
2022-10-12T13:36:13.244Z,16.73
2022-10-12T13:38:40.882Z,16.75
2022-10-12T13:41:13.208Z,16.80
2022-10-12T13:44:02.385Z,16.72
2022-10-12T13:46:45.217Z,16.73
2022-10-12T13:49:23.827Z,16.70
2022-10-12T13:51:57.915Z,16.68
2022-10-12T13:54:31.692Z,16.65
2022-10-12T13:57:03.107Z,16.76
2022-10-12T13:59:36.554Z,16.74
2022-10-12T14:02:17.212Z,16.69
2022-10-12T14:04:44.965Z,16.59
2022-10-12T14:07:22.580Z,16.45
2022-10-12T14:09:58.758Z,16.35
2022-10-12T14:12:30.050Z,16.23
2022-10-12T14:14:58.637Z,16.11
2022-10-12T14:17:26.362Z,15.95
2022-10-12T14:19:58.873Z,15.88
2022-10-12T14:22:30.223Z,15.89
2022-10-12T14:25:06.978Z,15.90
2022-10-12T14:27:37.960Z,15.93
2022-10-12T14:30:33.872Z,15.91
2022-10-12T14:33:16.968Z,15.75
2022-10-12T14:35:48.348Z,15.64
2022-10-12T14:38:45.697Z,15.58
2022-10-12T14:41:28.526Z,15.46
2022-10-12T14:44:08.319Z,15.33
2022-10-12T14:46:40.736Z,15.23
2022-10-12T14:49:20.346Z,15.15
2022-10-12T14:51:50.322Z,15.00
2022-10-12T14:54:18.109Z,14.94
2022-10-12T14:56:46.184Z,14.87
2022-10-12T14:59:14.951Z,14.80
2022-10-12T15:01:50.990Z,14.73
2022-10-12T15:04:19.277Z,14.66
2022-10-12T15:06:50.898Z,14.55
2022-10-12T15:09:19.549Z,14.43
2022-10-12T15:11:47.346Z,14.27
2022-10-12T15:14:15.296Z,14.20
2022-10-12T15:16:46.511Z,14.15
2022-10-12T15:19:14.399Z,14.10
2022-10-12T15:21:46.763Z,14.07
2022-10-12T15:24:15.624Z,13.98
2022-10-12T15:26:47.026Z,13.91
2022-10-12T15:29:14.724Z,13.80
2022-10-12T15:31:47.768Z,13.78
2022-10-12T15:34:19.102Z,13.68
2022-10-12T15:36:47.180Z,13.67
2022-10-12T15:39:14.845Z,13.61
2022-10-12T15:41:42.708Z,13.55
2022-10-12T15:44:13.168Z,13.50
2022-10-12T15:46:41.663Z,13.44
2022-10-12T15:49:09.519Z,13.39
2022-10-12T15:51:44.939Z,13.32
2022-10-12T15:54:12.680Z,13.25
2022-10-12T15:56:40.918Z,13.17
2022-10-12T15:59:08.781Z,13.09
2022-10-12T16:01:37.885Z,13.05
2022-10-12T16:04:07.515Z,12.98
2022-10-12T16:06:35.191Z,12.92
2022-10-12T16:09:02.906Z,12.82
2022-10-12T16:11:30.627Z,12.74
2022-10-12T16:13:58.257Z,12.67
2022-10-12T16:16:26.127Z,12.61
2022-10-12T16:18:54.348Z,12.55
2022-10-12T16:21:22.289Z,12.49
2022-10-12T16:23:49.974Z,12.46
2022-10-12T16:26:17.674Z,12.43
2022-10-12T16:28:45.531Z,12.40
2022-10-12T16:31:17.627Z,12.33
2022-10-12T16:33:45.719Z,12.34
2022-10-12T16:36:16.509Z,12.31
2022-10-12T16:38:44.343Z,12.30
2022-10-12T16:41:16.576Z,12.26
2022-10-12T16:43:44.450Z,12.24
2022-10-12T16:46:12.150Z,12.23
2022-10-12T16:48:39.803Z,12.24
2022-10-12T16:51:12.177Z,12.26
2022-10-12T16:53:42.309Z,12.26
2022-10-12T16:56:10.286Z,12.29
2022-10-12T16:58:37.960Z,12.26
2022-10-12T17:01:11.511Z,12.26
2022-10-12T17:03:40.338Z,12.24
2022-10-12T17:06:08.904Z,12.23
2022-10-12T17:08:39.129Z,12.20
2022-10-12T17:11:13.595Z,12.18
2022-10-12T17:13:45.241Z,12.15
2022-10-12T17:16:36.141Z,12.12
2022-10-12T17:19:04.542Z,12.08
2022-10-12T17:21:32.194Z,12.05
2022-10-12T17:24:01.017Z,12.00
2022-10-12T17:26:28.901Z,11.97
2022-10-12T17:28:56.623Z,11.94
2022-10-12T17:31:24.799Z,11.92
2022-10-12T17:33:53.123Z,11.93
2022-10-12T17:36:24.431Z,11.95
2022-10-12T17:38:56.809Z,11.97
2022-10-12T17:41:25.492Z,11.98
2022-10-12T17:43:53.172Z,11.97
2022-10-12T17:46:22.699Z,11.95
2022-10-12T17:48:51.017Z,11.92
2022-10-12T17:51:18.926Z,11.88
2022-10-12T17:53:46.837Z,11.82
2022-10-12T17:56:15.297Z,11.82
2022-10-12T17:58:43.097Z,11.78
2022-10-12T18:01:14.125Z,11.72
2022-10-12T18:03:45.373Z,11.67
2022-10-12T18:06:16.107Z,11.62
2022-10-12T18:08:44.414Z,11.51
2022-10-12T18:11:12.467Z,11.55
2022-10-12T18:13:40.280Z,11.55
2022-10-12T18:16:11.074Z,11.55
2022-10-12T18:18:39.697Z,11.58
2022-10-12T18:21:10.646Z,11.59
2022-10-12T18:23:38.413Z,11.57
2022-10-12T18:26:11.719Z,11.52
2022-10-12T18:28:40.837Z,11.53
2022-10-12T18:31:08.669Z,11.50
2022-10-12T18:33:36.372Z,11.44
2022-10-12T18:36:05.839Z,11.38
2022-10-12T18:38:34.439Z,11.33
2022-10-12T18:41:07.394Z,11.29
2022-10-12T18:43:36.265Z,11.24
2022-10-12T18:46:12.799Z,11.18
2022-10-12T18:48:41.026Z,11.14
2022-10-12T18:51:25.180Z,11.07
2022-10-12T18:53:53.181Z,11.01
2022-10-12T18:56:21.248Z,11.01
2022-10-12T18:58:49.537Z,11.01
2022-10-12T19:01:20.247Z,11.03
2022-10-12T19:03:48.808Z,11.04
2022-10-12T19:06:20.514Z,11.04
2022-10-12T19:08:49.083Z,11.02
2022-10-12T19:11:19.099Z,10.99
2022-10-12T19:13:55.528Z,10.94
2022-10-12T19:16:23.801Z,10.88
2022-10-12T19:18:59.838Z,10.76
2022-10-12T19:21:28.218Z,10.76
2022-10-12T19:23:56.133Z,10.64
2022-10-12T19:26:26.966Z,10.58
2022-10-12T19:28:56.418Z,10.46
2022-10-12T19:31:26.854Z,10.42
2022-10-12T19:33:59.666Z,10.36
2022-10-12T19:36:28.630Z,10.27
2022-10-12T19:38:58.960Z,10.17
2022-10-12T19:41:28.814Z,10.08
2022-10-12T19:43:57.541Z,9.95
2022-10-12T19:46:25.432Z,9.85
2022-10-12T19:48:55.078Z,9.73
2022-10-12T19:51:24.626Z,9.64
2022-10-12T19:53:57.521Z,9.53
2022-10-12T19:56:26.063Z,9.40
2022-10-12T19:58:56.251Z,9.30
2022-10-12T20:01:27.408Z,9.15
2022-10-12T20:03:55.918Z,9.03
2022-10-12T20:06:26.346Z,8.91
2022-10-12T20:08:56.192Z,8.82
2022-10-12T20:11:25.176Z,8.74
2022-10-12T20:13:53.416Z,8.66
2022-10-12T20:16:22.033Z,8.57
2022-10-12T20:18:50.478Z,8.54
2022-10-12T20:21:24.484Z,8.52
2022-10-12T20:23:52.276Z,8.47
2022-10-12T20:26:25.702Z,8.41
2022-10-12T20:28:54.475Z,8.28
2022-10-12T20:31:27.514Z,8.16
2022-10-12T20:33:57.793Z,8.01
2022-10-12T20:36:30.221Z,7.84
2022-10-12T20:38:59.340Z,7.72
2022-10-12T20:41:28.088Z,7.63
2022-10-12T20:43:57.236Z,7.47
2022-10-12T20:46:25.988Z,7.38
2022-10-12T20:48:58.817Z,7.30
2022-10-12T20:51:32.885Z,7.26
2022-10-12T20:54:03.076Z,7.23
2022-10-12T20:56:33.018Z,7.18
2022-10-12T20:59:01.437Z,7.17
2022-10-12T21:01:29.509Z,7.14
2022-10-12T21:03:57.422Z,7.09
2022-10-12T21:06:25.185Z,6.98
2022-10-12T21:08:55.273Z,6.96
2022-10-12T21:11:23.435Z,6.91
2022-10-12T21:13:51.155Z,6.82
2022-10-12T21:16:19.265Z,6.71
2022-10-12T21:18:47.158Z,6.64
2022-10-12T21:21:18.529Z,6.60
2022-10-12T21:23:57.713Z,6.52
2022-10-12T21:26:29.162Z,6.51
2022-10-12T21:28:58.267Z,6.47
2022-10-12T21:31:31.777Z,6.42
2022-10-12T21:34:05.111Z,6.43
2022-10-12T21:36:36.378Z,6.42
2022-10-12T21:39:09.868Z,6.40
2022-10-12T21:41:37.603Z,6.37
2022-10-12T21:44:05.684Z,6.31
2022-10-12T21:46:35.192Z,6.26
2022-10-12T21:49:04.656Z,6.19
2022-10-12T21:51:32.901Z,6.12
2022-10-12T21:54:00.633Z,6.07
2022-10-12T21:56:33.194Z,5.97
2022-10-12T21:59:02.185Z,5.87
2022-10-12T22:01:39.007Z,5.81
2022-10-12T22:04:11.836Z,5.78
2022-10-12T22:06:39.821Z,5.74
2022-10-12T22:09:11.903Z,5.73
2022-10-12T22:11:39.693Z,5.74
2022-10-12T22:14:11.274Z,5.77
2022-10-12T22:16:39.506Z,5.78
2022-10-12T22:19:08.428Z,5.80
2022-10-12T22:21:36.540Z,5.83
2022-10-12T22:24:05.936Z,5.83
2022-10-12T22:26:35.172Z,5.79
2022-10-12T22:29:05.126Z,5.75
2022-10-12T22:31:33.582Z,5.66
2022-10-12T22:34:01.297Z,5.64
2022-10-12T22:36:31.112Z,5.61
2022-10-12T22:38:59.616Z,5.49
2022-10-12T22:41:27.470Z,5.44
2022-10-12T22:43:56.847Z,5.36
2022-10-12T22:46:25.907Z,5.29
2022-10-12T22:48:54.612Z,5.25
2022-10-12T22:51:31.244Z,5.19
2022-10-12T22:54:00.386Z,5.16
2022-10-12T22:56:28.774Z,5.12
2022-10-12T22:58:59.099Z,5.07
2022-10-12T23:01:27.244Z,5.06
2022-10-12T23:03:55.385Z,5.00
2022-10-12T23:06:23.749Z,5.00
2022-10-12T23:08:51.759Z,4.97
2022-10-12T23:11:25.124Z,4.90
2022-10-12T23:13:54.372Z,4.89
2022-10-12T23:16:24.514Z,4.84
2022-10-12T23:18:59.933Z,4.80
2022-10-12T23:21:29.484Z,4.74
2022-10-12T23:40:08.686Z,4.74
2022-10-12T23:42:34.919Z,4.74
2022-10-12T23:45:03.361Z,4.73
2022-10-12T23:47:29.991Z,4.66
2022-10-12T23:49:56.224Z,4.65
2022-10-12T23:52:22.437Z,4.60
2022-10-12T23:54:50.266Z,4.54
2022-10-12T23:57:41.395Z,4.50
